createdAt,value
2019-04-11T00:01:45.836Z,5.74
2019-04-11T00:04:10.485Z,5.71
2019-04-11T00:06:39.675Z,5.68
2019-04-11T00:09:10.632Z,5.72
2019-04-11T00:11:39.897Z,5.75
2019-04-11T00:14:09.037Z,5.70
2019-04-11T00:16:39.450Z,5.62
2019-04-11T00:19:09.423Z,5.67
2019-04-11T00:21:39.375Z,5.60
2019-04-11T00:24:08.528Z,5.57
2019-04-11T00:26:38.205Z,5.56
2019-04-11T00:29:07.463Z,5.54
2019-04-11T00:31:36.906Z,5.58
2019-04-11T00:34:06.859Z,5.59
2019-04-11T00:36:36.766Z,5.53
2019-04-11T00:39:07.905Z,5.59
2019-04-11T00:41:41.871Z,5.56
2019-04-11T00:44:11.262Z,5.47
2019-04-11T00:46:40.614Z,5.47
2019-04-11T00:49:10.294Z,5.48
2019-04-11T00:51:40.211Z,5.52
2019-04-11T00:54:09.414Z,5.49
2019-04-11T00:56:38.614Z,5.43
2019-04-11T00:59:07.996Z,5.46
2019-04-11T01:01:37.129Z,5.45
2019-04-11T01:04:07.509Z,5.38
2019-04-11T01:06:36.758Z,5.35
2019-04-11T01:09:06.882Z,5.37
2019-04-11T01:11:37.885Z,5.39
2019-04-11T01:14:07.890Z,5.45
2019-04-11T01:16:38.950Z,5.42
2019-04-11T01:19:08.765Z,5.46
2019-04-11T01:21:38.057Z,5.41
2019-04-11T01:24:07.509Z,5.34
2019-04-11T01:26:37.182Z,5.35
2019-04-11T01:29:07.167Z,5.26
2019-04-11T01:31:38.054Z,5.32
2019-04-11T01:34:08.514Z,5.34
2019-04-11T01:36:37.850Z,5.29
2019-04-11T01:39:23.254Z,5.15
2019-04-11T01:41:53.297Z,5.31
2019-04-11T01:44:22.763Z,5.21
2019-04-11T01:46:52.444Z,5.21
2019-04-11T01:49:24.045Z,5.17
2019-04-11T01:51:53.937Z,5.25
2019-04-11T01:54:23.768Z,5.27
2019-04-11T01:56:53.697Z,5.18
2019-04-11T01:59:23.602Z,5.16
2019-04-11T02:02:09.703Z,5.18
2019-04-11T02:04:48.172Z,5.15
2019-04-11T02:07:18.397Z,5.13
2019-04-11T02:09:48.476Z,5.17
2019-04-11T02:12:18.427Z,5.14
2019-04-11T02:14:48.622Z,5.11
2019-04-11T02:17:18.850Z,5.19
2019-04-11T02:19:48.169Z,5.12
2019-04-11T02:22:28.573Z,5.13
2019-04-11T02:25:00.516Z,5.11
2019-04-11T02:27:30.823Z,5.05
2019-04-11T02:30:01.207Z,5.07
2019-04-11T02:32:31.931Z,5.08
2019-04-11T02:35:04.285Z,5.12
2019-04-11T02:37:34.354Z,5.15
2019-04-11T02:40:03.736Z,5.12
2019-04-11T02:42:35.081Z,4.95
2019-04-11T02:45:19.614Z,4.97
2019-04-11T02:47:41.554Z,4.97
2019-04-11T02:50:12.411Z,5.02
2019-04-11T02:52:42.112Z,5.02
2019-04-11T02:55:13.092Z,5.03
2019-04-11T02:57:43.104Z,5.03
2019-04-11T03:00:13.215Z,5.02
2019-04-11T03:02:44.438Z,5.08
2019-04-11T03:05:13.868Z,5.04
2019-04-11T03:07:43.149Z,5.07
2019-04-11T03:10:14.109Z,4.97
2019-04-11T03:12:45.658Z,4.89
2019-04-11T03:15:33.325Z,4.98
2019-04-11T03:17:47.933Z,4.97
2019-04-11T03:20:26.600Z,4.88
2019-04-11T03:22:54.165Z,4.78
2019-04-11T03:25:18.310Z,4.87
2019-04-11T03:27:49.269Z,4.77
2019-04-11T03:30:25.075Z,4.91
2019-04-11T03:38:13.871Z,4.82
2019-04-11T03:40:43.696Z,4.79
2019-04-11T03:43:09.327Z,4.69
2019-04-11T03:45:48.345Z,4.62
2019-04-11T03:48:12.535Z,4.59
2019-04-11T03:50:32.154Z,4.57
2019-04-11T03:53:01.488Z,4.59
2019-04-11T03:55:32.244Z,4.64
2019-04-11T03:58:03.629Z,4.67
2019-04-11T04:00:36.271Z,4.74
2019-04-11T04:03:04.684Z,4.67
2019-04-11T04:05:36.891Z,4.65
2019-04-11T04:08:06.135Z,4.52
2019-04-11T04:10:37.099Z,4.51
2019-04-11T04:13:13.370Z,4.60
2019-04-11T04:16:00.044Z,4.59
2019-04-11T04:18:24.544Z,4.58
2019-04-11T04:21:01.889Z,4.44
2019-04-11T04:23:33.633Z,4.43
2019-04-11T04:26:05.455Z,4.42
2019-04-11T04:28:35.692Z,4.43
2019-04-11T04:31:06.880Z,4.27
2019-04-11T04:33:38.455Z,4.38
2019-04-11T04:36:10.409Z,4.29
2019-04-11T04:38:41.247Z,4.29
2019-04-11T04:41:22.381Z,4.26
2019-04-11T04:43:44.173Z,4.24
2019-04-11T04:46:33.008Z,4.27
2019-04-11T04:48:45.430Z,4.21
2019-04-11T04:51:19.945Z,4.23
2019-04-11T04:53:50.213Z,4.23
2019-04-11T04:56:24.441Z,4.30
2019-04-11T04:58:50.931Z,4.28
2019-04-11T05:01:21.720Z,4.13
2019-04-11T05:03:51.095Z,4.13
2019-04-11T05:06:20.750Z,4.17
2019-04-11T05:08:51.282Z,4.23
2019-04-11T05:11:20.675Z,4.16
2019-04-11T05:13:51.770Z,4.27
2019-04-11T05:16:20.717Z,4.27
2019-04-11T05:18:50.502Z,4.24
2019-04-11T05:21:19.772Z,4.20
2019-04-11T05:23:50.012Z,4.01
2019-04-11T05:26:19.403Z,4.05
2019-04-11T05:28:48.858Z,4.21
2019-04-11T05:31:18.512Z,4.22
2019-04-11T05:33:47.779Z,4.27
2019-04-11T05:36:16.965Z,4.33
2019-04-11T05:38:47.115Z,4.18
2019-04-11T05:41:17.350Z,4.25
2019-04-11T05:43:47.395Z,4.36
2019-04-11T05:46:31.124Z,4.29
2019-04-11T05:48:54.998Z,4.16
2019-04-11T05:51:23.862Z,4.17
2019-04-11T05:53:56.143Z,4.17
2019-04-11T05:56:30.004Z,4.13
2019-04-11T05:59:07.386Z,4.13
2019-04-11T06:01:38.384Z,4.19
2019-04-11T06:04:13.129Z,4.33
2019-04-11T06:06:58.134Z,4.39
2019-04-11T06:09:33.753Z,4.50
2019-04-11T06:12:01.623Z,4.65
2019-04-11T06:14:51.252Z,4.59
2019-04-11T06:17:21.838Z,4.61
2019-04-11T06:19:53.541Z,4.50
2019-04-11T06:22:23.520Z,4.42
2019-04-11T06:24:54.390Z,4.44
2019-04-11T06:27:31.098Z,4.47
2019-04-11T06:30:03.273Z,4.63
2019-04-11T06:32:46.169Z,4.66
2019-04-11T06:35:17.005Z,4.72
2019-04-11T06:38:03.954Z,4.71
2019-04-11T06:40:46.674Z,4.83
2019-04-11T06:43:20.289Z,4.67
2019-04-11T06:45:52.371Z,4.65
2019-04-11T06:48:26.309Z,4.62
2019-04-11T06:50:57.696Z,4.81
2019-04-11T06:53:28.528Z,4.97
2019-04-11T06:56:00.593Z,4.93
2019-04-11T06:58:35.154Z,5.00
2019-04-11T07:01:06.083Z,5.08
2019-04-11T07:03:40.603Z,5.32
2019-04-11T07:06:11.419Z,5.51
2019-04-11T07:08:49.039Z,6.05
2019-04-11T07:11:36.259Z,8.59
2019-04-11T07:14:20.195Z,9.97
2019-04-11T07:17:09.541Z,11.99
2019-04-11T07:19:56.489Z,12.34
2019-04-11T07:22:43.346Z,12.89
2019-04-11T07:25:22.851Z,14.72
2019-04-11T07:28:10.027Z,14.83
2019-04-11T07:30:58.053Z,13.07
2019-04-11T07:33:33.123Z,13.07
2019-04-11T07:36:20.997Z,14.56
2019-04-11T07:38:52.337Z,14.64
2019-04-11T07:41:23.963Z,16.47
2019-04-11T07:43:54.200Z,16.58
2019-04-11T07:46:35.034Z,15.48
2019-04-11T07:49:04.302Z,15.48
2019-04-11T07:51:34.368Z,16.78
2019-04-11T07:54:04.900Z,17.13
2019-04-11T07:56:38.476Z,17.35
2019-04-11T07:59:09.236Z,17.14
2019-04-11T08:01:40.395Z,17.05
2019-04-11T08:04:11.281Z,18.55
2019-04-11T08:06:50.750Z,17.20
2019-04-11T08:09:26.756Z,17.34
2019-04-11T08:11:58.355Z,16.63
2019-04-11T08:14:29.305Z,16.33
2019-04-11T08:17:09.426Z,15.40
2019-04-11T08:19:57.470Z,14.54
2019-04-11T08:22:35.020Z,14.66
2019-04-11T08:25:25.015Z,15.30
2019-04-11T08:28:00.755Z,15.00
2019-04-11T08:30:28.759Z,14.87
2019-04-11T08:33:00.341Z,16.63
2019-04-11T08:35:34.924Z,13.33
2019-04-11T08:38:12.131Z,11.69
2019-04-11T08:40:55.463Z,10.52
2019-04-11T08:43:37.530Z,9.90
2019-04-11T08:46:08.791Z,9.67
2019-04-11T08:48:57.602Z,9.57
2019-04-11T08:51:29.402Z,9.24
2019-04-11T08:54:17.435Z,9.19
2019-04-11T08:56:47.376Z,8.93
2019-04-11T08:59:35.821Z,8.61
2019-04-11T09:02:06.846Z,8.48
2019-04-11T09:04:38.415Z,8.57
2019-04-11T09:07:10.190Z,8.47
2019-04-11T09:09:57.740Z,8.53
2019-04-11T09:12:27.190Z,8.46
2019-04-11T09:15:04.445Z,8.77
2019-04-11T09:17:36.557Z,9.06
2019-04-11T09:20:09.486Z,8.61
2019-04-11T09:22:44.950Z,8.53
2019-04-11T09:25:19.040Z,8.55
2019-04-11T09:27:53.960Z,8.72
2019-04-11T09:30:31.230Z,8.66
2019-04-11T09:33:17.458Z,8.83
2019-04-11T09:35:51.255Z,8.91
2019-04-11T09:38:24.611Z,8.80
2019-04-11T09:41:01.373Z,8.73
2019-04-11T09:43:32.216Z,8.57
2019-04-11T09:46:03.032Z,8.76
2019-04-11T09:48:36.420Z,8.85
2019-04-11T09:51:19.864Z,8.70
2019-04-11T09:54:05.712Z,8.71
2019-04-11T09:56:53.886Z,8.84
2019-04-11T09:59:31.480Z,8.66
2019-04-11T10:02:18.826Z,8.81
2019-04-11T10:04:50.204Z,8.58
2019-04-11T10:07:28.125Z,8.46
2019-04-11T10:10:11.284Z,8.58
2019-04-11T10:12:52.047Z,8.75
2019-04-11T10:15:23.303Z,8.94
2019-04-11T10:18:20.178Z,8.57
2019-04-11T10:20:42.595Z,8.70
2019-04-11T10:23:13.472Z,8.75
2019-04-11T10:25:43.372Z,8.80
2019-04-11T10:28:21.681Z,8.57
2019-04-11T10:31:08.592Z,8.68
2019-04-11T10:33:55.439Z,8.65
2019-04-11T10:36:29.517Z,8.79
2019-04-11T10:39:15.587Z,8.88
2019-04-11T10:41:50.478Z,8.61
2019-04-11T10:44:38.832Z,8.64
2019-04-11T10:47:10.015Z,8.70
2019-04-11T10:49:56.945Z,8.80
2019-04-11T10:52:28.788Z,8.76
2019-04-11T10:55:09.530Z,8.82
2019-04-11T10:57:56.670Z,8.90
2019-04-11T11:00:27.511Z,8.81
2019-04-11T11:03:11.610Z,8.94
2019-04-11T11:05:51.680Z,8.74
2019-04-11T11:08:41.642Z,8.75
2019-04-11T11:11:24.999Z,8.91
2019-04-11T11:14:12.277Z,8.77
2019-04-11T11:16:47.032Z,9.09
2019-04-11T11:19:40.874Z,9.02
2019-04-11T11:21:51.331Z,8.91
2019-04-11T11:24:31.628Z,8.88
2019-04-11T11:27:03.811Z,8.79
2019-04-11T11:29:33.289Z,9.03
2019-04-11T11:32:05.130Z,8.87
2019-04-11T11:34:38.987Z,9.15
2019-04-11T11:37:24.986Z,9.39
2019-04-11T11:40:02.715Z,9.42
2019-04-11T11:42:32.497Z,9.46
2019-04-11T11:45:04.129Z,9.28
2019-04-11T11:47:46.942Z,9.15
2019-04-11T11:50:23.940Z,8.94
2019-04-11T11:52:54.895Z,9.01
2019-04-11T11:55:25.717Z,9.30
2019-04-11T11:57:59.209Z,9.55
2019-04-11T12:00:30.626Z,9.40
2019-04-11T12:03:05.295Z,9.25
2019-04-11T12:05:36.677Z,9.36
2019-04-11T12:08:11.590Z,9.62
2019-04-11T12:10:40.041Z,9.72
2019-04-11T12:13:28.329Z,9.76
2019-04-11T12:16:05.822Z,9.81
2019-04-11T12:18:49.784Z,9.44
2019-04-11T12:21:23.620Z,9.21
2019-04-11T12:24:02.131Z,9.31
2019-04-11T12:26:32.213Z,9.35
2019-04-11T12:29:15.732Z,9.52
2019-04-11T12:31:48.113Z,9.65
2019-04-11T12:34:24.724Z,9.44
2019-04-11T12:36:54.781Z,9.27
2019-04-11T12:39:42.606Z,9.14
2019-04-11T12:42:18.909Z,9.18
2019-04-11T12:45:06.538Z,9.21
2019-04-11T12:47:38.552Z,9.53
2019-04-11T12:50:16.447Z,9.46
2019-04-11T12:52:48.217Z,9.55
2019-04-11T12:55:27.812Z,9.53
2019-04-11T12:58:13.804Z,9.68
2019-04-11T13:00:59.950Z,9.60
2019-04-11T13:03:46.847Z,9.80
2019-04-11T13:06:20.480Z,9.92
2019-04-11T13:09:00.247Z,9.70
2019-04-11T13:11:31.147Z,9.80
2019-04-11T13:14:19.818Z,9.75
2019-04-11T13:16:50.623Z,9.85
2019-04-11T13:19:26.010Z,9.76
2019-04-11T13:21:56.900Z,9.80
2019-04-11T13:24:39.595Z,9.59
2019-04-11T13:27:16.456Z,9.62
2019-04-11T13:29:47.286Z,9.90
2019-04-11T13:32:34.457Z,9.69
2019-04-11T13:35:06.325Z,9.79
2019-04-11T13:37:53.552Z,9.92
2019-04-11T13:40:27.224Z,9.97
2019-04-11T13:43:14.202Z,9.88
2019-04-11T13:46:01.210Z,9.97
2019-04-11T13:48:48.365Z,10.02
2019-04-11T13:51:31.370Z,10.02
2019-04-11T13:54:17.447Z,9.97
2019-04-11T13:57:04.393Z,10.21
2019-04-11T13:59:35.208Z,10.12
2019-04-11T14:02:15.705Z,10.20
2019-04-11T14:04:49.241Z,10.06
2019-04-11T14:07:21.246Z,9.44
2019-04-11T14:09:55.808Z,9.70
2019-04-11T14:12:26.251Z,10.00
2019-04-11T14:14:57.369Z,10.00
2019-04-11T14:17:28.184Z,9.92
2019-04-11T14:20:11.650Z,9.79
2019-04-11T14:22:45.569Z,9.79
2019-04-11T14:25:22.699Z,9.80
2019-04-11T14:28:05.140Z,9.87
2019-04-11T14:30:51.529Z,9.92
2019-04-11T14:33:19.129Z,10.14
2019-04-11T14:36:06.364Z,10.27
2019-04-11T14:38:45.618Z,9.91
2019-04-11T14:41:25.184Z,9.62
2019-04-11T14:43:56.009Z,9.57
2019-04-11T14:46:42.920Z,9.58
2019-04-11T14:49:12.161Z,9.57
2019-04-11T14:51:54.818Z,9.81
2019-04-11T14:54:28.422Z,9.98
2019-04-11T14:57:15.774Z,10.18
2019-04-11T14:59:46.603Z,10.23
2019-04-11T15:02:23.254Z,10.40
2019-04-11T15:04:59.826Z,10.49
2019-04-11T15:07:30.668Z,10.14
2019-04-11T15:10:18.033Z,9.90
2019-04-11T15:12:48.309Z,9.96
2019-04-11T15:15:28.055Z,9.87
2019-04-11T15:17:58.878Z,9.99
2019-04-11T15:20:33.834Z,9.93
2019-04-11T15:23:14.497Z,9.89
2019-04-11T15:25:45.306Z,9.96
2019-04-11T15:28:34.168Z,10.17
2019-04-11T15:31:19.946Z,10.28
2019-04-11T15:34:09.020Z,10.37
2019-04-11T15:36:39.979Z,10.44
2019-04-11T15:39:13.621Z,10.19
2019-04-11T15:41:44.465Z,10.28
2019-04-11T15:44:15.298Z,10.21
2019-04-11T15:46:47.599Z,10.26
2019-04-11T15:49:30.051Z,10.25
2019-04-11T15:51:58.168Z,10.11
2019-04-11T15:54:31.461Z,10.16
2019-04-11T15:57:12.281Z,10.30
2019-04-11T15:59:43.860Z,10.24
2019-04-11T16:02:29.533Z,10.33
2019-04-11T16:05:02.128Z,10.20
2019-04-11T16:07:37.750Z,10.11
2019-04-11T16:10:11.722Z,10.13
2019-04-11T16:12:58.573Z,9.95
2019-04-11T16:15:32.235Z,10.14
2019-04-11T16:18:04.018Z,10.20
2019-04-11T16:20:33.206Z,10.10
2019-04-11T16:23:15.810Z,10.15
2019-04-11T16:25:46.629Z,9.94
2019-04-11T16:28:26.210Z,10.02
2019-04-11T16:30:57.042Z,10.12
2019-04-11T16:33:36.937Z,10.15
2019-04-11T16:36:19.772Z,10.00
2019-04-11T16:38:50.614Z,9.76
2019-04-11T16:41:37.776Z,9.86
2019-04-11T16:44:11.486Z,10.00
2019-04-11T16:46:58.511Z,10.07
2019-04-11T16:49:27.724Z,10.13
2019-04-11T16:51:56.930Z,10.12
2019-04-11T16:54:26.113Z,10.02
2019-04-11T16:56:55.320Z,9.98
2019-04-11T16:59:24.518Z,10.09
2019-04-11T17:01:54.428Z,10.06
2019-04-11T17:04:25.824Z,10.00
2019-04-11T17:06:56.275Z,9.95
2019-04-11T17:09:45.269Z,9.90
2019-04-11T17:12:14.439Z,9.87
2019-04-11T17:14:43.630Z,9.86
2019-04-11T17:17:15.273Z,9.98
2019-04-11T17:19:44.930Z,9.83
2019-04-11T17:22:14.109Z,9.83
2019-04-11T17:24:47.599Z,9.86
2019-04-11T17:27:15.089Z,9.92
2019-04-11T17:29:44.269Z,9.96
2019-04-11T17:32:14.091Z,9.98
2019-04-11T17:34:43.324Z,9.90
2019-04-11T17:37:12.567Z,9.93
2019-04-11T17:39:41.765Z,9.93
2019-04-11T17:42:13.208Z,9.95
2019-04-11T17:44:42.725Z,9.95
2019-04-11T17:47:11.929Z,9.93
2019-04-11T17:49:41.104Z,9.95
2019-04-11T17:52:10.494Z,9.99
2019-04-11T17:54:39.695Z,9.94
2019-04-11T17:57:08.906Z,9.84
2019-04-11T17:59:38.108Z,9.76
2019-04-11T18:02:10.391Z,9.66
2019-04-11T18:04:44.053Z,9.67
2019-04-11T18:07:10.782Z,9.67
2019-04-11T18:09:40.046Z,9.75
2019-04-11T18:12:09.211Z,9.67
2019-04-11T18:14:38.403Z,9.54
2019-04-11T18:17:07.573Z,9.51
2019-04-11T18:19:36.883Z,9.56
2019-04-11T18:22:08.238Z,9.48
2019-04-11T18:24:37.668Z,9.41
2019-04-11T18:27:06.841Z,9.36
2019-04-11T18:29:36.090Z,9.43
2019-04-11T18:32:05.421Z,9.41
2019-04-11T18:34:34.643Z,9.38
2019-04-11T18:37:03.901Z,9.39
2019-04-11T18:39:33.622Z,9.40
2019-04-11T18:42:03.966Z,9.39
2019-04-11T18:44:33.126Z,9.31
2019-04-11T18:47:02.368Z,9.32
2019-04-11T18:49:31.579Z,9.32
2019-04-11T18:52:00.741Z,9.31
2019-04-11T18:54:29.926Z,9.28
2019-04-11T18:56:59.108Z,9.14
2019-04-11T18:59:28.304Z,9.13
2019-04-11T19:01:57.489Z,9.15
2019-04-11T19:04:32.224Z,9.10
2019-04-11T19:06:57.560Z,8.83
2019-04-11T19:09:27.858Z,8.75
2019-04-11T19:11:57.060Z,8.73
2019-04-11T19:14:27.152Z,8.68
2019-04-11T19:16:56.330Z,8.63
2019-04-11T19:19:27.468Z,8.60
2019-04-11T19:21:56.582Z,8.56
2019-04-11T19:24:35.086Z,8.48
2019-04-11T19:26:58.697Z,8.56
2019-04-11T19:29:27.912Z,8.46
2019-04-11T19:31:57.163Z,8.49
2019-04-11T19:34:26.338Z,8.47
2019-04-11T19:36:55.538Z,8.41
2019-04-11T19:39:24.712Z,8.34
2019-04-11T19:41:53.912Z,8.21
2019-04-11T19:44:23.091Z,8.06
2019-04-11T19:46:52.291Z,8.07
2019-04-11T19:49:21.578Z,8.10
2019-04-11T19:51:51.025Z,8.04
2019-04-11T19:54:20.296Z,8.00
2019-04-11T19:57:03.050Z,7.97
2019-04-11T19:59:32.420Z,7.95
2019-04-11T20:02:01.600Z,7.98
2019-04-11T20:04:30.786Z,8.01
2019-04-11T20:06:59.972Z,8.03
2019-04-11T20:09:29.146Z,8.06
2019-04-11T20:12:00.689Z,8.03
2019-04-11T20:14:29.335Z,7.97
2019-04-11T20:16:58.511Z,7.95
2019-04-11T20:19:28.122Z,7.98
2019-04-11T20:21:57.322Z,8.00
2019-04-11T20:24:26.528Z,7.95
2019-04-11T20:26:55.696Z,7.91
2019-04-11T20:29:24.872Z,7.85
2019-04-11T20:31:54.042Z,7.89
2019-04-11T20:34:27.605Z,7.82
2019-04-11T20:36:54.286Z,7.85
2019-04-11T20:39:24.382Z,7.84
2019-04-11T20:41:54.175Z,7.92
2019-04-11T20:44:27.566Z,7.93
2019-04-11T20:47:00.173Z,7.80
2019-04-11T20:49:27.182Z,7.83
2019-04-11T20:51:56.447Z,7.77
2019-04-11T20:54:25.629Z,7.84
2019-04-11T20:56:54.849Z,7.85
2019-04-11T20:59:33.920Z,7.90
2019-04-11T21:01:56.413Z,7.71
2019-04-11T21:04:25.888Z,7.70
2019-04-11T21:06:55.110Z,7.62
2019-04-11T21:09:24.306Z,7.68
2019-04-11T21:11:53.494Z,7.63
2019-04-11T21:14:22.693Z,7.58
2019-04-11T21:16:51.885Z,7.60
2019-04-11T21:19:23.287Z,7.59
2019-04-11T21:21:53.278Z,7.60
2019-04-11T21:24:22.937Z,7.48
2019-04-11T21:26:52.218Z,7.56
2019-04-11T21:29:21.373Z,7.47
2019-04-11T21:31:50.879Z,7.46
2019-04-11T21:34:20.065Z,7.36
2019-04-11T21:36:50.182Z,7.41
2019-04-11T21:39:19.331Z,7.42
2019-04-11T21:41:49.797Z,7.35
2019-04-11T21:44:19.010Z,7.23
2019-04-11T21:46:49.441Z,7.24
2019-04-11T21:49:18.759Z,7.25
2019-04-11T21:51:47.930Z,7.27
2019-04-11T21:54:17.118Z,7.26
2019-04-11T21:56:49.312Z,7.24
2019-04-11T21:59:20.044Z,7.28
2019-04-11T22:01:48.133Z,7.18
2019-04-11T22:04:17.485Z,7.16
2019-04-11T22:06:46.673Z,7.21
2019-04-11T22:09:17.250Z,7.19
2019-04-11T22:11:47.382Z,7.08
2019-04-11T22:14:16.555Z,7.06
2019-04-11T22:16:45.742Z,7.04
2019-04-11T22:19:15.002Z,7.03
2019-04-11T22:21:45.472Z,7.08
2019-04-11T22:24:15.130Z,7.07
2019-04-11T22:26:44.306Z,7.03
2019-04-11T22:29:13.510Z,7.00
2019-04-11T22:31:42.746Z,7.01
2019-04-11T22:34:25.958Z,7.03
2019-04-11T22:36:59.581Z,7.00
2019-04-11T22:39:29.027Z,6.90
2019-04-11T22:41:58.002Z,6.99
2019-04-11T22:44:27.164Z,6.96
2019-04-11T22:46:56.335Z,7.04
2019-04-11T22:49:25.551Z,7.04
2019-04-11T22:51:54.741Z,6.88
2019-04-11T22:54:23.936Z,7.01
2019-04-11T22:56:53.141Z,6.90
2019-04-11T22:59:22.323Z,6.86
2019-04-11T23:01:53.173Z,6.85
2019-04-11T23:04:22.353Z,6.82
2019-04-11T23:06:51.526Z,6.89
2019-04-11T23:09:20.719Z,6.77
2019-04-11T23:11:49.894Z,6.81
2019-04-11T23:14:19.099Z,6.82
2019-04-11T23:16:48.279Z,6.85
2019-04-11T23:19:17.466Z,6.79
2019-04-11T23:21:46.639Z,6.77
2019-04-11T23:24:15.818Z,6.70
2019-04-11T23:26:45.027Z,6.77
2019-04-11T23:29:32.530Z,6.73
2019-04-11T23:32:01.737Z,6.74
2019-04-11T23:34:30.902Z,6.77
2019-04-11T23:37:00.096Z,6.72
2019-04-11T23:39:29.310Z,6.77
2019-04-11T23:41:58.485Z,6.80
2019-04-11T23:44:27.669Z,6.80
2019-04-11T23:46:56.888Z,6.80
2019-04-11T23:49:26.083Z,6.79
2019-04-11T23:51:55.879Z,6.75
2019-04-11T23:54:28.970Z,6.81
2019-04-11T23:57:00.473Z,6.80
2019-04-11T23:59:31.776Z,6.85
